Time;durP1;ratioP1;P1;durP2;ratioP2;P2;SDS_P1;SDS_P2;PMS_P1;PMS_P2;Temp;Humidity;BMP_temperature;BMP_pressure;BME280_temperature;BME280_humidity;BME280_pressure;Samples;Min_cycle;Max_cycle;Signal;HPM_P1;HPM_P2
2022/12/16 00:01:11;;;;;;;14.10;5.47;;;1.90;99.90;;;;;;5043577;28;39611;-81
2022/12/16 00:03:38;;;;;;;13.77;5.40;;;1.90;99.90;;;;;;5049022;28;37112;-80
2022/12/16 00:06:06;;;;;;;14.83;5.03;;;1.90;99.90;;;;;;5043312;28;36879;-81
2022/12/16 00:08:34;;;;;;;12.00;5.00;;;2.00;99.90;;;;;;5049895;28;48466;-81
2022/12/16 00:11:01;;;;;;;14.83;5.20;;;2.00;99.90;;;;;;5050512;28;37523;-81
2022/12/16 00:13:29;;;;;;;6.63;3.90;;;2.00;99.90;;;;;;5047039;28;38762;-80
2022/12/16 00:15:55;;;;;;;8.87;4.27;;;2.00;99.90;;;;;;5044977;28;36911;-81
2022/12/16 00:18:21;;;;;;;11.93;4.43;;;2.00;99.90;;;;;;5065657;28;36224;-79
2022/12/16 00:21:43;;;;;;;18.00;4.63;;;2.00;99.90;;;;;;5048262;28;38775;-81
2022/12/16 00:24:09;;;;;;;16.60;4.80;;;1.90;99.90;;;;;;5049388;28;48796;-81
2022/12/16 00:26:35;;;;;;;10.60;4.20;;;2.00;99.90;;;;;;5051109;28;38211;-81
2022/12/16 00:29:04;;;;;;;8.23;4.00;;;2.00;99.90;;;;;;5051206;28;38017;-82
2022/12/16 00:31:30;;;;;;;14.23;4.40;;;1.90;99.90;;;;;;5050613;28;39101;-81
2022/12/16 00:33:57;;;;;;;13.53;5.50;;;2.00;99.90;;;;;;5049073;28;38262;-81
2022/12/16 00:36:23;;;;;;;10.50;5.53;;;2.00;99.90;;;;;;5047166;28;38845;-81
2022/12/16 00:38:51;;;;;;;8.80;5.83;;;2.00;99.90;;;;;;5045501;28;36755;-81
2022/12/16 00:41:17;;;;;;;11.27;5.17;;;1.90;99.90;;;;;;5050337;28;39651;-82
2022/12/16 00:43:43;;;;;;;11.60;5.90;;;1.90;99.90;;;;;;5049226;28;37994;-81
2022/12/16 00:46:09;;;;;;;10.30;5.10;;;1.90;99.90;;;;;;5051611;28;39039;-81
2022/12/16 00:48:36;;;;;;;12.27;6.97;;;1.90;99.90;;;;;;5053989;28;36480;-81
2022/12/16 00:51:02;;;;;;;9.80;6.07;;;1.80;99.90;;;;;;5050102;28;38943;-81
2022/12/16 00:53:28;;;;;;;13.13;6.63;;;1.80;99.90;;;;;;5037408;28;38640;-81
2022/12/16 00:56:20;;;;;;;13.37;5.40;;;1.70;99.90;;;;;;5047511;28;36430;-81
2022/12/16 00:58:46;;;;;;;7.78;5.90;;;1.70;99.90;;;;;;5044656;28;48568;-81
2022/12/16 01:01:12;;;;;;;11.73;5.13;;;1.70;99.90;;;;;;5046341;28;38519;-81
2022/12/16 01:03:39;;;;;;;8.87;5.10;;;1.70;99.90;;;;;;5044191;28;37628;-81
2022/12/16 01:06:10;;;;;;;9.60;4.90;;;1.70;99.90;;;;;;5047433;28;37785;-81
2022/12/16 01:08:37;;;;;;;10.07;5.73;;;1.70;99.90;;;;;;5049131;28;35745;-81
2022/12/16 01:11:03;;;;;;;10.60;5.43;;;1.70;99.90;;;;;;5047715;28;38457;-81
2022/12/16 01:13:29;;;;;;;9.53;6.40;;;1.70;99.90;;;;;;5052189;28;38595;-83
2022/12/16 01:15:59;;;;;;;9.40;5.27;;;1.60;99.90;;;;;;5047946;28;38381;-81
2022/12/16 01:18:25;;;;;;;11.83;5.97;;;1.60;99.90;;;;;;5049730;28;36657;-81
2022/12/16 01:20:51;;;;;;;9.83;5.03;;;1.60;99.90;;;;;;5055235;28;39867;-82
2022/12/16 01:23:17;;;;;;;9.97;5.83;;;1.60;99.90;;;;;;5052791;28;37314;-81
2022/12/16 01:25:43;;;;;;;8.47;5.70;;;1.50;99.90;;;;;;5054180;28;36747;-81
2022/12/16 01:28:09;;;;;;;8.17;5.57;;;1.40;99.90;;;;;;5070887;28;37527;-81
2022/12/16 01:30:35;;;;;;;9.83;4.97;;;1.40;99.90;;;;;;5056646;28;42260;-81
2022/12/16 01:33:01;;;;;;;12.33;6.17;;;1.40;99.90;;;;;;5051425;28;38581;-81
2022/12/16 01:35:28;;;;;;;9.83;5.90;;;1.30;99.90;;;;;;5048962;28;47347;-81
2022/12/16 01:37:54;;;;;;;10.27;6.47;;;1.30;99.90;;;;;;5052632;28;37903;-81
2022/12/16 01:40:22;;;;;;;9.67;4.10;;;1.20;99.90;;;;;;5052159;28;39093;-82
2022/12/16 01:42:49;;;;;;;7.87;4.47;;;1.20;99.90;;;;;;5054521;28;37266;-82
2022/12/16 01:45:23;;;;;;;10.70;4.07;;;1.20;99.90;;;;;;5051572;28;37004;-82
2022/12/16 01:47:52;;;;;;;9.53;4.73;;;1.20;99.90;;;;;;5051707;28;38468;-81
2022/12/16 01:50:18;;;;;;;10.53;4.60;;;1.30;99.90;;;;;;5053314;28;40152;-81
2022/12/16 01:52:49;;;;;;;6.77;4.40;;;1.30;99.90;;;;;;5046146;28;38304;-81
2022/12/16 01:55:33;;;;;;;11.60;4.40;;;1.40;99.90;;;;;;5048829;28;38003;-81
2022/12/16 01:58:14;;;;;;;16.73;4.50;;;1.40;99.90;;;;;;5045307;28;36964;-81
2022/12/16 02:03:16;;;;;;;10.53;4.80;;;1.30;99.90;;;;;;5219637;22;20481;-73
2022/12/16 02:05:44;;;;;;;10.23;5.00;;;1.20;99.90;;;;;;4998179;28;37165;-73
2022/12/16 02:08:16;;;;;;;10.47;4.27;;;1.20;99.90;;;;;;4999575;28;36451;-74
2022/12/16 02:10:42;;;;;;;11.73;4.50;;;1.10;99.90;;;;;;5016910;28;38636;-74
2022/12/16 02:13:24;;;;;;;8.80;4.17;;;1.20;99.90;;;;;;4999810;28;39218;-74
2022/12/16 02:16:02;;;;;;;8.77;3.05;;;1.10;99.90;;;;;;5001554;28;37471;-74
2022/12/16 02:18:37;;;;;;;11.73;4.70;;;1.00;99.90;;;;;;5001426;28;37743;-74
2022/12/16 02:21:26;;;;;;;11.40;3.87;;;1.00;99.90;;;;;;4998555;28;37866;-74
2022/12/16 02:23:52;;;;;;;9.87;3.60;;;1.10;99.90;;;;;;4980456;28;46740;-74
2022/12/16 02:26:37;;;;;;;11.70;3.70;;;1.00;99.90;;;;;;5013508;28;35737;-74
2022/12/16 02:29:22;;;;;;;12.60;3.97;;;1.00;99.90;;;;;;4998283;28;36180;-73
2022/12/16 02:32:00;;;;;;;9.33;4.07;;;1.00;99.90;;;;;;5010877;28;38974;-74
2022/12/16 02:34:52;;;;;;;11.33;4.23;;;1.00;99.90;;;;;;4999933;28;38403;-74
2022/12/16 02:37:35;;;;;;;9.30;3.53;;;1.00;99.90;;;;;;4967360;28;37112;-74
2022/12/16 02:40:08;;;;;;;11.63;3.75;;;1.00;99.90;;;;;;4999813;28;36899;-74
2022/12/16 02:42:40;;;;;;;9.83;3.83;;;0.90;99.90;;;;;;4997467;28;48584;-74
2022/12/16 02:45:16;;;;;;;13.93;3.35;;;0.90;99.90;;;;;;4997415;28;40463;-74
2022/12/16 02:47:44;;;;;;;10.70;3.70;;;0.80;99.90;;;;;;5005755;28;37219;-74
2022/12/16 02:50:36;;;;;;;8.90;3.20;;;0.80;99.90;;;;;;4997073;28;37337;-74
2022/12/16 02:53:04;;;;;;;15.23;3.00;;;0.80;99.90;;;;;;4994728;28;37685;-74
2022/12/16 02:55:59;;;;;;;9.33;2.50;;;0.80;99.90;;;;;;4997931;28;47403;-74
2022/12/16 02:58:49;;;;;;;10.50;3.20;;;0.70;99.90;;;;;;5000741;28;37747;-73
2022/12/16 03:01:24;;;;;;;10.40;3.10;;;0.70;99.90;;;;;;5010675;28;38822;-74
2022/12/16 03:04:06;;;;;;;9.83;3.63;;;0.70;99.90;;;;;;5000893;28;39107;-73
2022/12/16 03:06:35;;;;;;;10.18;2.90;;;0.70;99.90;;;;;;5003011;28;48224;-73
2022/12/16 03:09:07;;;;;;;7.73;2.70;;;0.70;99.90;;;;;;5001348;28;38290;-74
2022/12/16 03:11:34;;;;;;;14.03;2.93;;;0.60;99.90;;;;;;5002424;28;48932;-74
2022/12/16 03:14:02;;;;;;;10.23;2.23;;;0.60;99.90;;;;;;5002573;28;39270;-73
2022/12/16 03:16:33;;;;;;;11.73;3.20;;;0.70;99.90;;;;;;4995431;28;47057;-74
2022/12/16 03:19:03;;;;;;;6.83;2.10;;;0.60;99.90;;;;;;5006047;28;37588;-74
2022/12/16 03:21:37;;;;;;;7.60;2.40;;;0.60;99.90;;;;;;5007618;28;47027;-74
2022/12/16 03:24:07;;;;;;;10.70;2.40;;;0.60;99.90;;;;;;4999736;28;37688;-74
2022/12/16 03:26:42;;;;;;;7.23;1.90;;;0.50;99.90;;;;;;5002652;28;39203;-74
2022/12/16 03:29:20;;;;;;;7.77;2.10;;;0.50;99.90;;;;;;4998802;28;38152;-74
2022/12/16 03:31:50;;;;;;;5.80;1.97;;;0.50;99.90;;;;;;5017847;28;35907;-75
2022/12/16 03:34:20;;;;;;;13.27;2.10;;;0.50;99.90;;;;;;5000843;28;38367;-75
2022/12/16 03:36:52;;;;;;;7.57;2.33;;;0.50;99.90;;;;;;5009270;28;37919;-74
2022/12/16 03:39:22;;;;;;;9.75;2.35;;;0.60;99.90;;;;;;5003903;28;36607;-74
2022/12/16 03:41:52;;;;;;;13.67;2.73;;;0.60;99.90;;;;;;5001938;28;36305;-74
2022/12/16 03:44:21;;;;;;;13.40;2.60;;;0.70;99.90;;;;;;4996903;28;38767;-75
2022/12/16 03:46:48;;;;;;;9.80;2.10;;;0.60;99.90;;;;;;4992488;28;37454;-74
2022/12/16 03:49:14;;;;;;;5.40;2.27;;;0.60;99.90;;;;;;4997823;28;39275;-74
2022/12/16 03:51:40;;;;;;;8.03;2.33;;;0.50;99.90;;;;;;4999298;28;37321;-74
2022/12/16 03:54:06;;;;;;;6.93;1.93;;;0.40;99.90;;;;;;5013392;28;38511;-74
2022/12/16 03:56:33;;;;;;;8.33;2.27;;;0.50;99.90;;;;;;4999993;28;37490;-73
2022/12/16 03:58:59;;;;;;;7.53;2.00;;;0.50;99.90;;;;;;5004070;28;36876;-74
2022/12/16 04:01:25;;;;;;;7.20;2.20;;;0.50;99.90;;;;;;4995793;28;36404;-75
2022/12/16 04:03:51;;;;;;;11.67;2.07;;;0.50;99.90;;;;;;4995906;28;38396;-74
2022/12/16 04:06:17;;;;;;;9.60;2.10;;;0.40;99.90;;;;;;5004294;28;38137;-74
2022/12/16 04:08:47;;;;;;;8.00;2.30;;;0.40;99.90;;;;;;5000390;28;37082;-74
2022/12/16 04:25:33;;;;;;;13.00;2.30;;;0.40;99.90;;;;;;5008284;28;40339;-75
2022/12/16 04:27:59;;;;;;;16.90;2.73;;;0.30;99.90;;;;;;5009306;28;37887;-74
2022/12/16 04:30:27;;;;;;;10.03;2.83;;;0.40;99.90;;;;;;5010825;28;36934;-74
